sensor_id;sensor_type;location;lat;lon;timestamp;pressure;altitude;pressure_sealevel;temperature;humidity
70229;BME280;57617;51.988;5.854;2023-10-09T00:00:23;101532.16;;;18.55;66.24
70229;BME280;57617;51.988;5.854;2023-10-09T00:03:16;101525.00;;;18.54;65.99
70229;BME280;57617;51.988;5.854;2023-10-09T00:05:42;101528.03;;;18.52;66.09
70229;BME280;57617;51.988;5.854;2023-10-09T00:08:16;101528.03;;;18.52;66.21
70229;BME280;57617;51.988;5.854;2023-10-09T00:10:50;101530.78;;;18.52;66.31
70229;BME280;57617;51.988;5.854;2023-10-09T00:13:21;101516.22;;;18.52;66.01
70229;BME280;57617;51.988;5.854;2023-10-09T00:15:53;101518.97;;;18.52;66.10
70229;BME280;57617;51.988;5.854;2023-10-09T00:18:22;101520.59;;;18.53;66.29
70229;BME280;57617;51.988;5.854;2023-10-09T00:20:54;101514.00;;;18.54;66.33
70229;BME280;57617;51.988;5.854;2023-10-09T00:23:20;101531.34;;;18.54;66.41
70229;BME280;57617;51.988;5.854;2023-10-09T00:25:50;101526.66;;;18.55;66.17
70229;BME280;57617;51.988;5.854;2023-10-09T00:28:33;101534.63;;;18.56;66.41
70229;BME280;57617;51.988;5.854;2023-10-09T00:30:59;101520.59;;;18.58;66.19
70229;BME280;57617;51.988;5.854;2023-10-09T00:33:27;101520.59;;;18.63;66.34
70229;BME280;57617;51.988;5.854;2023-10-09T00:35:54;101516.75;;;18.64;66.58
70229;BME280;57617;51.988;5.854;2023-10-09T00:38:19;101509.59;;;18.68;66.77
70229;BME280;57617;51.988;5.854;2023-10-09T00:40:44;101508.75;;;18.72;66.57
70229;BME280;57617;51.988;5.854;2023-10-09T00:43:21;101514.50;;;18.76;66.25
70229;BME280;57617;51.988;5.854;2023-10-09T00:45:53;101507.09;;;18.76;66.34
70229;BME280;57617;51.988;5.854;2023-10-09T00:48:18;101508.47;;;18.79;66.17
70229;BME280;57617;51.988;5.854;2023-10-09T00:50:55;101508.72;;;18.82;66.42
70229;BME280;57617;51.988;5.854;2023-10-09T00:53:23;101515.88;;;18.83;66.38
70229;BME280;57617;51.988;5.854;2023-10-09T00:55:56;101510.63;;;18.87;66.33
70229;BME280;57617;51.988;5.854;2023-10-09T00:58:22;101513.13;;;18.88;66.20
70229;BME280;57617;51.988;5.854;2023-10-09T01:00:51;101514.75;;;18.89;65.99
70229;BME280;57617;51.988;5.854;2023-10-09T01:03:18;101510.94;;;18.90;66.06
70229;BME280;57617;51.988;5.854;2023-10-09T01:05:44;101507.34;;;18.90;66.13
70229;BME280;57617;51.988;5.854;2023-10-09T01:08:28;101506.50;;;18.89;66.15
70229;BME280;57617;51.988;5.854;2023-10-09T01:10:58;101510.63;;;18.92;66.22
70229;BME280;57617;51.988;5.854;2023-10-09T01:13:34;101501.56;;;18.91;66.08
70229;BME280;57617;51.988;5.854;2023-10-09T01:16:18;101498.22;;;18.94;66.36
70229;BME280;57617;51.988;5.854;2023-10-09T01:18:44;101488.31;;;18.93;66.52
70229;BME280;57617;51.988;5.854;2023-10-09T01:21:09;101485.31;;;18.95;66.44
70229;BME280;57617;51.988;5.854;2023-10-09T01:23:39;101483.06;;;18.97;66.05
70229;BME280;57617;51.988;5.854;2023-10-09T01:26:12;101477.88;;;19.00;65.96
70229;BME280;57617;51.988;5.854;2023-10-09T01:28:37;101475.63;;;19.02;66.17
70229;BME280;57617;51.988;5.854;2023-10-09T01:31:03;101483.63;;;19.04;66.10
70229;BME280;57617;51.988;5.854;2023-10-09T01:33:28;101482.78;;;19.03;66.24
70229;BME280;57617;51.988;5.854;2023-10-09T01:35:56;101479.75;;;19.05;66.15
70229;BME280;57617;51.988;5.854;2023-10-09T01:38:27;101491.63;;;19.05;66.15
70229;BME280;57617;51.988;5.854;2023-10-09T01:41:06;101478.66;;;19.06;66.25
70229;BME280;57617;51.988;5.854;2023-10-09T01:43:34;101477.53;;;19.07;66.33
70229;BME280;57617;51.988;5.854;2023-10-09T01:46:00;101486.09;;;19.05;66.31
70229;BME280;57617;51.988;5.854;2023-10-09T01:48:26;101484.16;;;19.11;66.17
70229;BME280;57617;51.988;5.854;2023-10-09T01:50:51;101471.22;;;19.11;66.08
70229;BME280;57617;51.988;5.854;2023-10-09T01:53:18;101475.06;;;19.15;66.07
70229;BME280;57617;51.988;5.854;2023-10-09T01:55:47;101473.94;;;19.16;66.04
70229;BME280;57617;51.988;5.854;2023-10-09T01:58:12;101473.13;;;19.16;66.06
70229;BME280;57617;51.988;5.854;2023-10-09T02:00:46;101469.81;;;19.19;66.17
70229;BME280;57617;51.988;5.854;2023-10-09T02:03:19;101467.59;;;19.21;66.06
70229;BME280;57617;51.988;5.854;2023-10-09T02:05:48;101457.97;;;19.23;66.36
70229;BME280;57617;51.988;5.854;2023-10-09T02:08:15;101460.16;;;19.26;65.97
70229;BME280;57617;51.988;5.854;2023-10-09T02:10:41;101466.47;;;19.27;66.01
70229;BME280;57617;51.988;5.854;2023-10-09T02:13:12;101457.41;;;19.26;66.13
70229;BME280;57617;51.988;5.854;2023-10-09T02:15:42;101457.94;;;19.28;65.81
70229;BME280;57617;51.988;5.854;2023-10-09T02:18:10;101462.63;;;19.28;66.00
70229;BME280;57617;51.988;5.854;2023-10-09T02:20:48;101451.03;;;19.31;66.12
70229;BME280;57617;51.988;5.854;2023-10-09T02:23:40;101451.03;;;19.31;65.98
70229;BME280;57617;51.988;5.854;2023-10-09T02:26:15;101448.81;;;19.33;66.04
70229;BME280;57617;51.988;5.854;2023-10-09T02:28:59;101441.66;;;19.32;65.92
70229;BME280;57617;51.988;5.854;2023-10-09T02:31:25;101443.31;;;19.33;66.04
70229;BME280;57617;51.988;5.854;2023-10-09T02:33:52;101430.38;;;19.33;65.90
70229;BME280;57617;51.988;5.854;2023-10-09T02:36:23;101424.84;;;19.33;66.02
70229;BME280;57617;51.988;5.854;2023-10-09T02:38:49;101426.78;;;19.33;66.04
70229;BME280;57617;51.988;5.854;2023-10-09T02:41:18;101426.25;;;19.31;66.16
70229;BME280;57617;51.988;5.854;2023-10-09T02:43:45;101422.94;;;19.34;66.34
70229;BME280;57617;51.988;5.854;2023-10-09T02:46:16;101417.13;;;19.35;66.24
70229;BME280;57617;51.988;5.854;2023-10-09T02:48:56;101419.59;;;19.37;66.18
70229;BME280;57617;51.988;5.854;2023-10-09T02:51:28;101415.72;;;19.38;66.03
70229;BME280;57617;51.988;5.854;2023-10-09T02:56:20;101411.09;;;19.33;66.37
70229;BME280;57617;51.988;5.854;2023-10-09T02:59:04;101413.00;;;19.33;65.99
70229;BME280;57617;51.988;5.854;2023-10-09T03:01:37;101417.72;;;19.32;66.17
70229;BME280;57617;51.988;5.854;2023-10-09T03:04:06;101415.22;;;19.31;66.23
70229;BME280;57617;51.988;5.854;2023-10-09T03:06:35;101412.47;;;19.31;66.40
70229;BME280;57617;51.988;5.854;2023-10-09T03:09:03;101407.81;;;19.31;66.20
70229;BME280;57617;51.988;5.854;2023-10-09T03:11:42;101405.03;;;19.31;66.16
70229;BME280;57617;51.988;5.854;2023-10-09T03:14:08;101398.69;;;19.31;66.21
70229;BME280;57617;51.988;5.854;2023-10-09T03:16:33;101393.19;;;19.31;66.36
70229;BME280;57617;51.988;5.854;2023-10-09T03:18:58;101396.47;;;19.33;66.73
70229;BME280;57617;51.988;5.854;2023-10-09T03:21:24;101392.06;;;19.32;66.46
70229;BME280;57617;51.988;5.854;2023-10-09T03:23:49;101394.84;;;19.32;66.55
70229;BME280;57617;51.988;5.854;2023-10-09T03:26:16;101397.06;;;19.30;66.38
70229;BME280;57617;51.988;5.854;2023-10-09T03:28:42;101387.97;;;19.29;66.44
70229;BME280;57617;51.988;5.854;2023-10-09T03:31:08;101394.84;;;19.27;67.19
70229;BME280;57617;51.988;5.854;2023-10-09T03:33:35;101382.16;;;19.31;66.93
70229;BME280;57617;51.988;5.854;2023-10-09T03:36:00;101372.78;;;19.32;66.48
70229;BME280;57617;51.988;5.854;2023-10-09T03:38:26;101384.94;;;19.31;66.70
70229;BME280;57617;51.988;5.854;2023-10-09T03:40:54;101397.88;;;19.30;66.55
70229;BME280;57617;51.988;5.854;2023-10-09T03:43:19;101392.94;;;19.27;66.86
70229;BME280;57617;51.988;5.854;2023-10-09T03:45:46;101392.09;;;19.27;66.80
70229;BME280;57617;51.988;5.854;2023-10-09T03:48:17;101383.03;;;19.26;66.93
70229;BME280;57617;51.988;5.854;2023-10-09T03:50:51;101382.72;;;19.28;66.88
70229;BME280;57617;51.988;5.854;2023-10-09T03:53:32;101381.09;;;19.27;67.19
70229;BME280;57617;51.988;5.854;2023-10-09T03:56:01;101382.19;;;19.26;67.02
70229;BME280;57617;51.988;5.854;2023-10-09T03:58:26;101375.56;;;19.27;67.14
70229;BME280;57617;51.988;5.854;2023-10-09T04:00:58;101367.88;;;19.29;66.99
70229;BME280;57617;51.988;5.854;2023-10-09T04:03:23;101373.66;;;19.27;67.11
70229;BME280;57617;51.988;5.854;2023-10-09T04:05:49;101380.56;;;19.25;67.25
70229;BME280;57617;51.988;5.854;2023-10-09T04:08:16;101392.09;;;19.27;67.53
70229;BME280;57617;51.988;5.854;2023-10-09T04:10:44;101410.84;;;19.30;67.24
70229;BME280;57617;51.988;5.854;2023-10-09T04:13:16;101422.38;;;19.32;67.45
70229;BME280;57617;51.988;5.854;2023-10-09T04:15:44;101433.13;;;19.33;67.20
70229;BME280;57617;51.988;5.854;2023-10-09T04:18:09;101432.00;;;19.34;67.26
70229;BME280;57617;51.988;5.854;2023-10-09T04:20:40;101422.94;;;19.34;67.33
70229;BME280;57617;51.988;5.854;2023-10-09T04:23:08;101414.94;;;19.32;67.07
70229;BME280;57617;51.988;5.854;2023-10-09T04:25:33;101411.09;;;19.33;67.45
70229;BME280;57617;51.988;5.854;2023-10-09T04:28:10;101412.44;;;19.36;67.57
70229;BME280;57617;51.988;5.854;2023-10-09T04:30:45;101381.41;;;19.15;67.31
70229;BME280;57617;51.988;5.854;2023-10-09T04:33:18;101414.34;;;19.40;67.44
70229;BME280;57617;51.988;5.854;2023-10-09T04:36:05;101410.78;;;19.40;67.42
70229;BME280;57617;51.988;5.854;2023-10-09T04:38:49;101410.50;;;19.41;67.47
70229;BME280;57617;51.988;5.854;2023-10-09T04:41:24;101403.88;;;19.42;67.52
70229;BME280;57617;51.988;5.854;2023-10-09T04:43:53;101404.13;;;19.46;67.67
70229;BME280;57617;51.988;5.854;2023-10-09T04:46:28;101406.88;;;19.46;67.67
70229;BME280;57617;51.988;5.854;2023-10-09T04:48:56;101410.47;;;19.46;67.62
70229;BME280;57617;51.988;5.854;2023-10-09T04:51:40;101409.63;;;19.46;67.42
70229;BME280;57617;51.988;5.854;2023-10-09T04:54:24;101405.75;;;19.47;67.82
70229;BME280;57617;51.988;5.854;2023-10-09T04:57:04;101394.75;;;19.47;67.74
70229;BME280;57617;51.988;5.854;2023-10-09T04:59:29;101400.25;;;19.47;67.87
70229;BME280;57617;51.988;5.854;2023-10-09T05:01:54;101399.13;;;19.48;68.02
70229;BME280;57617;51.988;5.854;2023-10-09T05:04:23;101398.06;;;19.49;67.93
70229;BME280;57617;51.988;5.854;2023-10-09T05:07:05;101387.03;;;19.49;67.76
70229;BME280;57617;51.988;5.854;2023-10-09T05:09:49;101402.97;;;19.52;67.97
70229;BME280;57617;51.988;5.854;2023-10-09T05:12:33;101403.81;;;19.52;67.82
70229;BME280;57617;51.988;5.854;2023-10-09T05:14:58;101404.63;;;19.53;67.86
70229;BME280;57617;51.988;5.854;2023-10-09T05:17:34;101407.09;;;19.54;67.88
70229;BME280;57617;51.988;5.854;2023-10-09T05:20:01;101394.41;;;19.58;67.94
70229;BME280;57617;51.988;5.854;2023-10-09T05:22:46;101407.34;;;19.58;67.96
70229;BME280;57617;51.988;5.854;2023-10-09T05:25:22;101402.66;;;19.58;67.87
70229;BME280;57617;51.988;5.854;2023-10-09T05:28:07;101398.81;;;19.59;68.03
70229;BME280;57617;51.988;5.854;2023-10-09T05:30:50;101405.66;;;19.62;68.06
70229;BME280;57617;51.988;5.854;2023-10-09T05:33:27;101411.72;;;19.64;68.00
70229;BME280;57617;51.988;5.854;2023-10-09T05:35:58;101418.34;;;19.63;68.14
70229;BME280;57617;51.988;5.854;2023-10-09T05:38:42;101414.47;;;19.64;68.18
70229;BME280;57617;51.988;5.854;2023-10-09T05:41:24;101411.72;;;19.64;68.28
70229;BME280;57617;51.988;5.854;2023-10-09T05:43:56;101421.41;;;19.61;68.32
70229;BME280;57617;51.988;5.854;2023-10-09T05:46:40;101423.06;;;19.62;68.41
70229;BME280;57617;51.988;5.854;2023-10-09T05:49:26;101428.25;;;19.64;68.44
70229;BME280;57617;51.988;5.854;2023-10-09T05:52:10;101442.34;;;19.62;68.51
70229;BME280;57617;51.988;5.854;2023-10-09T05:54:54;101450.31;;;19.64;68.65
70229;BME280;57617;51.988;5.854;2023-10-09T05:57:39;101450.31;;;19.64;68.63
70229;BME280;57617;51.988;5.854;2023-10-09T06:00:23;101448.66;;;19.63;68.80
70229;BME280;57617;51.988;5.854;2023-10-09T06:03:07;101457.47;;;19.65;68.58
70229;BME280;57617;51.988;5.854;2023-10-09T06:05:45;101460.50;;;19.68;68.77
70229;BME280;57617;51.988;5.854;2023-10-09T06:08:26;101463.25;;;19.68;68.65
70229;BME280;57617;51.988;5.854;2023-10-09T06:10:52;101465.41;;;19.71;68.71
70229;BME280;57617;51.988;5.854;2023-10-09T06:13:31;101465.97;;;19.73;68.34
70229;BME280;57617;51.988;5.854;2023-10-09T06:16:02;101464.34;;;19.72;68.43
70229;BME280;57617;51.988;5.854;2023-10-09T06:18:53;101473.41;;;19.73;68.57
70229;BME280;57617;51.988;5.854;2023-10-09T06:21:19;101470.13;;;19.71;68.74
70229;BME280;57617;51.988;5.854;2023-10-09T06:24:03;101464.63;;;19.71;68.88
70229;BME280;57617;51.988;5.854;2023-10-09T06:26:40;101456.88;;;19.73;68.72
70229;BME280;57617;51.988;5.854;2023-10-09T06:29:29;101422.66;;;19.74;68.65
70229;BME280;57617;51.988;5.854;2023-10-09T06:32:01;101416.59;;;19.77;68.75
70229;BME280;57617;51.988;5.854;2023-10-09T06:34:50;101422.38;;;19.75;68.78
70229;BME280;57617;51.988;5.854;2023-10-09T06:37:22;101428.19;;;19.74;68.98
70229;BME280;57617;51.988;5.854;2023-10-09T06:39:53;101434.53;;;19.74;69.15
70229;BME280;57617;51.988;5.854;2023-10-09T06:42:22;101442.50;;;19.81;69.05
70229;BME280;57617;51.988;5.854;2023-10-09T06:45:09;101445.50;;;19.84;68.93
70229;BME280;57617;51.988;5.854;2023-10-09T06:47:50;101437.22;;;19.84;69.02
70229;BME280;57617;51.988;5.854;2023-10-09T06:50:20;101436.09;;;19.85;68.99
70229;BME280;57617;51.988;5.854;2023-10-09T06:52:46;101424.78;;;19.87;68.88
70229;BME280;57617;51.988;5.854;2023-10-09T06:55:35;101422.88;;;19.87;69.12
70229;BME280;57617;51.988;5.854;2023-10-09T06:58:13;101424.28;;;19.85;69.20
70229;BME280;57617;51.988;5.854;2023-10-09T07:00:41;101447.41;;;19.84;69.35
70229;BME280;57617;51.988;5.854;2023-10-09T07:03:26;101454.88;;;19.83;69.22
70229;BME280;57617;51.988;5.854;2023-10-09T07:06:06;101454.63;;;19.80;69.12
70229;BME280;57617;51.988;5.854;2023-10-09T07:08:48;101464.00;;;19.79;69.26
70229;BME280;57617;51.988;5.854;2023-10-09T07:11:25;101455.72;;;19.79;69.39
70229;BME280;57617;51.988;5.854;2023-10-09T07:14:14;101473.94;;;19.80;69.56
70229;BME280;57617;51.988;5.854;2023-10-09T07:17:02;101466.72;;;19.84;69.19
70229;BME280;57617;51.988;5.854;2023-10-09T07:19:30;101464.50;;;19.86;69.54
70229;BME280;57617;51.988;5.854;2023-10-09T07:22:07;101467.56;;;19.84;69.46
70229;BME280;57617;51.988;5.854;2023-10-09T07:24:54;101470.59;;;19.83;69.63
70229;BME280;57617;51.988;5.854;2023-10-09T07:27:19;101472.78;;;19.86;69.68
70229;BME280;57617;51.988;5.854;2023-10-09T07:30:05;101466.44;;;19.85;69.75
70229;BME280;57617;51.988;5.854;2023-10-09T07:32:50;101465.88;;;19.88;69.54
70229;BME280;57617;51.988;5.854;2023-10-09T07:35:17;101479.66;;;19.88;69.56
70229;BME280;57617;51.988;5.854;2023-10-09T07:38:02;101501.72;;;19.88;69.74
70229;BME280;57617;51.988;5.854;2023-10-09T07:40:28;101468.34;;;19.90;69.88
70229;BME280;57617;51.988;5.854;2023-10-09T07:42:56;101459.75;;;19.96;69.71
70229;BME280;57617;51.988;5.854;2023-10-09T07:45:29;101477.97;;;19.97;69.80
70229;BME280;57617;51.988;5.854;2023-10-09T07:47:58;101439.34;;;19.97;69.77
70229;BME280;57617;51.988;5.854;2023-10-09T07:50:36;101430.75;;;19.99;69.70
70229;BME280;57617;51.988;5.854;2023-10-09T07:53:13;101424.16;;;20.00;69.87
70229;BME280;57617;51.988;5.854;2023-10-09T07:56:05;101419.72;;;19.99;70.01
70229;BME280;57617;51.988;5.854;2023-10-09T07:58:33;101415.59;;;19.96;69.96
70229;BME280;57617;51.988;5.854;2023-10-09T08:01:11;101422.25;;;19.95;69.87
70229;BME280;57617;51.988;5.854;2023-10-09T08:03:56;101430.72;;;20.04;70.06
70229;BME280;57617;51.988;5.854;2023-10-09T08:06:36;101434.59;;;20.08;69.86
70229;BME280;57617;51.988;5.854;2023-10-09T08:09:08;101446.16;;;20.10;69.85
70229;BME280;57617;51.988;5.854;2023-10-09T08:11:40;101440.06;;;20.13;69.87
70229;BME280;57617;51.988;5.854;2023-10-09T08:14:06;101445.31;;;20.14;70.06
70229;BME280;57617;51.988;5.854;2023-10-09T08:17:00;101439.19;;;20.17;70.24
70229;BME280;57617;51.988;5.854;2023-10-09T08:19:42;101441.38;;;20.20;70.01
70229;BME280;57617;51.988;5.854;2023-10-09T08:24:51;101451.53;;;20.25;70.06
70229;BME280;57617;51.988;5.854;2023-10-09T08:27:25;101457.09;;;20.20;70.24
70229;BME280;57617;51.988;5.854;2023-10-09T08:29:58;101456.09;;;20.11;70.39
70229;BME280;57617;51.988;5.854;2023-10-09T08:32:42;101480.53;;;20.22;70.28
70229;BME280;57617;51.988;5.854;2023-10-09T08:35:08;101473.13;;;20.18;70.50
70229;BME280;57617;51.988;5.854;2023-10-09T08:37:51;101465.38;;;20.20;70.59
70229;BME280;57617;51.988;5.854;2023-10-09T08:40:18;101460.41;;;20.22;70.67
70229;BME280;57617;51.988;5.854;2023-10-09T08:42:52;101453.72;;;20.28;70.53
70229;BME280;57617;51.988;5.854;2023-10-09T08:45:20;101452.34;;;20.30;70.53
70229;BME280;57617;51.988;5.854;2023-10-09T08:47:51;101451.78;;;20.33;70.47
70229;BME280;57617;51.988;5.854;2023-10-09T08:50:19;101456.41;;;20.38;70.59
70229;BME280;57617;51.988;5.854;2023-10-09T08:52:44;101475.63;;;20.48;70.52
70229;BME280;57617;51.988;5.854;2023-10-09T08:55:11;101470.88;;;20.53;70.42
70229;BME280;57617;51.988;5.854;2023-10-09T08:57:38;101489.34;;;20.58;70.52
70229;BME280;57617;51.988;5.854;2023-10-09T09:00:05;101504.50;;;20.60;70.30
70229;BME280;57617;51.988;5.854;2023-10-09T09:02:34;101516.66;;;20.59;70.28
70229;BME280;57617;51.988;5.854;2023-10-09T09:05:07;101511.66;;;20.61;70.37
70229;BME280;57617;51.988;5.854;2023-10-09T09:07:40;101508.03;;;20.66;70.21
70229;BME280;57617;51.988;5.854;2023-10-09T09:10:07;101504.41;;;20.70;70.02
70229;BME280;57617;51.988;5.854;2023-10-09T09:13:05;101513.78;;;20.74;70.11
70229;BME280;57617;51.988;5.854;2023-10-09T09:15:31;101516.78;;;20.78;70.11
70229;BME280;57617;51.988;5.854;2023-10-09T09:18:04;101516.16;;;20.81;69.89
70229;BME280;57617;51.988;5.854;2023-10-09T09:20:31;101519.72;;;20.86;69.87
70229;BME280;57617;51.988;5.854;2023-10-09T09:23:02;101516.94;;;20.91;69.85
70229;BME280;57617;51.988;5.854;2023-10-09T09:25:40;101512.22;;;20.92;69.71
70229;BME280;57617;51.988;5.854;2023-10-09T09:28:24;101519.38;;;20.98;69.76
70229;BME280;57617;51.988;5.854;2023-10-09T09:30:52;101517.13;;;21.00;69.78
70229;BME280;57617;51.988;5.854;2023-10-09T09:33:23;101516.50;;;21.08;69.62
70229;BME280;57617;51.988;5.854;2023-10-09T09:36:08;101520.84;;;21.14;69.40
70229;BME280;57617;51.988;5.854;2023-10-09T09:38:36;101536.53;;;21.18;69.59
70229;BME280;57617;51.988;5.854;2023-10-09T09:41:12;101526.03;;;21.20;69.35
70229;BME280;57617;51.988;5.854;2023-10-09T09:43:38;101530.94;;;21.23;69.31
70229;BME280;57617;51.988;5.854;2023-10-09T09:46:06;101530.09;;;21.28;69.43
70229;BME280;57617;51.988;5.854;2023-10-09T09:48:42;101542.72;;;21.34;69.43
70229;BME280;57617;51.988;5.854;2023-10-09T09:51:12;101543.47;;;21.39;69.41
70229;BME280;57617;51.988;5.854;2023-10-09T09:53:38;101524.91;;;21.45;69.11
70229;BME280;57617;51.988;5.854;2023-10-09T09:56:04;101531.47;;;21.49;69.11
70229;BME280;57617;51.988;5.854;2023-10-09T09:58:29;101533.34;;;21.53;69.02
70229;BME280;57617;51.988;5.854;2023-10-09T10:01:07;101528.88;;;21.57;68.94
70229;BME280;57617;51.988;5.854;2023-10-09T10:03:40;101522.22;;;21.58;68.88
70229;BME280;57617;51.988;5.854;2023-10-09T10:06:08;101524.69;;;21.60;68.70
70229;BME280;57617;51.988;5.854;2023-10-09T10:08:41;101518.56;;;21.63;68.62
70229;BME280;57617;51.988;5.854;2023-10-09T10:11:06;101522.16;;;21.63;68.52
70229;BME280;57617;51.988;5.854;2023-10-09T10:16:10;101515.72;;;21.68;68.25
70229;BME280;57617;51.988;5.854;2023-10-09T10:18:59;101517.44;;;21.69;68.33
70229;BME280;57617;51.988;5.854;2023-10-09T10:21:32;101521.22;;;21.73;68.12
70229;BME280;57617;51.988;5.854;2023-10-09T10:23:57;101523.41;;;21.76;68.05
70229;BME280;57617;51.988;5.854;2023-10-09T10:26:39;101512.28;;;21.81;67.94
70229;BME280;57617;51.988;5.854;2023-10-09T10:29:18;101514.44;;;21.84;67.79
70229;BME280;57617;51.988;5.854;2023-10-09T10:31:58;101522.06;;;21.92;67.95
70229;BME280;57617;51.988;5.854;2023-10-09T10:37:21;101528.03;;;21.99;67.70
70229;BME280;57617;51.988;5.854;2023-10-09T10:39:50;101527.47;;;22.02;67.66
70229;BME280;57617;51.988;5.854;2023-10-09T10:42:15;101518.66;;;22.00;67.58
70229;BME280;57617;51.988;5.854;2023-10-09T10:44:58;101530.00;;;21.98;67.43
70229;BME280;57617;51.988;5.854;2023-10-09T10:47:27;101534.63;;;22.03;67.53
70229;BME280;57617;51.988;5.854;2023-10-09T10:50:02;101534.84;;;22.06;67.52
70229;BME280;57617;51.988;5.854;2023-10-09T10:52:36;101536.19;;;22.09;67.18
70229;BME280;57617;51.988;5.854;2023-10-09T10:55:15;101530.38;;;22.10;67.11
70229;BME280;57617;51.988;5.854;2023-10-09T10:58:14;101526.72;;;22.15;67.05
70229;BME280;57617;51.988;5.854;2023-10-09T11:00:40;101523.25;;;22.23;67.05
70229;BME280;57617;51.988;5.854;2023-10-09T11:03:24;101523.78;;;22.25;66.74
70229;BME280;57617;51.988;5.854;2023-10-09T11:06:01;101524.53;;;22.30;66.71
70229;BME280;57617;51.988;5.854;2023-10-09T11:08:38;101520.13;;;22.29;66.43
70229;BME280;57617;51.988;5.854;2023-10-09T11:11:15;101504.84;;;22.32;66.64
70229;BME280;57617;51.988;5.854;2023-10-09T11:13:41;101518.91;;;22.35;66.68
70229;BME280;57617;51.988;5.854;2023-10-09T11:16:22;101516.91;;;22.41;66.48
70229;BME280;57617;51.988;5.854;2023-10-09T11:19:06;101523.72;;;22.48;66.17
70229;BME280;57617;51.988;5.854;2023-10-09T11:21:58;101520.94;;;22.48;66.06
70229;BME280;57617;51.988;5.854;2023-10-09T11:24:44;101526.16;;;22.50;66.00
70229;BME280;57617;51.988;5.854;2023-10-09T11:27:12;101520.53;;;22.55;65.76
70229;BME280;57617;51.988;5.854;2023-10-09T11:29:51;101508.03;;;22.57;65.97
70229;BME280;57617;51.988;5.854;2023-10-09T11:32:17;101519.25;;;22.66;65.74
70229;BME280;57617;51.988;5.854;2023-10-09T11:34:43;101514.75;;;22.70;65.71
70229;BME280;57617;51.988;5.854;2023-10-09T11:37:17;101520.19;;;22.75;65.62
70229;BME280;57617;51.988;5.854;2023-10-09T11:40:02;101517.31;;;22.80;65.68
70229;BME280;57617;51.988;5.854;2023-10-09T11:42:29;101516.09;;;22.86;65.43
70229;BME280;57617;51.988;5.854;2023-10-09T11:45:05;101514.16;;;22.86;65.20
70229;BME280;57617;51.988;5.854;2023-10-09T11:47:50;101520.44;;;22.92;64.92
70229;BME280;57617;51.988;5.854;2023-10-09T11:53:07;101519.94;;;23.03;64.85
70229;BME280;57617;51.988;5.854;2023-10-09T11:55:45;101510.19;;;23.06;64.54
70229;BME280;57617;51.988;5.854;2023-10-09T11:58:14;101512.66;;;23.07;64.42
70229;BME280;57617;51.988;5.854;2023-10-09T12:00:39;101509.69;;;23.04;64.23
70229;BME280;57617;51.988;5.854;2023-10-09T12:03:10;101507.41;;;23.06;64.18
70229;BME280;57617;51.988;5.854;2023-10-09T12:05:35;101518.41;;;23.11;64.00
70229;BME280;57617;51.988;5.854;2023-10-09T12:08:02;101525.50;;;23.17;63.88
70229;BME280;57617;51.988;5.854;2023-10-09T12:10:27;101523.78;;;23.21;63.84
70229;BME280;57617;51.988;5.854;2023-10-09T12:12:54;101525.66;;;23.25;63.95
70229;BME280;57617;51.988;5.854;2023-10-09T12:15:23;101518.13;;;23.26;63.87
70229;BME280;57617;51.988;5.854;2023-10-09T12:17:48;101517.94;;;23.22;63.44
70229;BME280;57617;51.988;5.854;2023-10-09T12:20:14;101517.44;;;23.20;63.61
70229;BME280;57617;51.988;5.854;2023-10-09T12:22:56;101512.69;;;23.21;63.50
70229;BME280;57617;51.988;5.854;2023-10-09T12:25:22;101500.16;;;23.23;63.33
70229;BME280;57617;51.988;5.854;2023-10-09T12:27:48;101500.16;;;23.23;63.24
70229;BME280;57617;51.988;5.854;2023-10-09T12:30:13;101499.88;;;23.25;62.99
70229;BME280;57617;51.988;5.854;2023-10-09T12:32:38;101493.50;;;23.24;62.83
70229;BME280;57617;51.988;5.854;2023-10-09T12:35:04;101491.56;;;23.25;62.74
70229;BME280;57617;51.988;5.854;2023-10-09T12:37:42;101492.69;;;23.24;62.92
70229;BME280;57617;51.988;5.854;2023-10-09T12:40:08;101499.88;;;23.25;62.39
70229;BME280;57617;51.988;5.854;2023-10-09T12:42:35;101495.47;;;23.24;62.28
70229;BME280;57617;51.988;5.854;2023-10-09T12:45:01;101495.25;;;23.20;62.11
70229;BME280;57617;51.988;5.854;2023-10-09T12:47:32;101499.66;;;23.21;62.27
70229;BME280;57617;51.988;5.854;2023-10-09T12:49:58;101498.03;;;23.20;62.25
70229;BME280;57617;51.988;5.854;2023-10-09T12:52:23;101493.00;;;23.22;62.01
70229;BME280;57617;51.988;5.854;2023-10-09T12:54:54;101488.88;;;23.20;62.28
70229;BME280;57617;51.988;5.854;2023-10-09T12:57:19;101495.00;;;23.17;62.20
70229;BME280;57617;51.988;5.854;2023-10-09T12:59:45;101496.13;;;23.16;62.47
70229;BME280;57617;51.988;5.854;2023-10-09T13:02:13;101496.13;;;23.16;62.42
70229;BME280;57617;51.988;5.854;2023-10-09T13:04:53;101496.69;;;23.18;62.31
70229;BME280;57617;51.988;5.854;2023-10-09T13:07:18;101500.53;;;23.17;62.56
70229;BME280;57617;51.988;5.854;2023-10-09T13:09:47;101503.31;;;23.17;62.89
70229;BME280;57617;51.988;5.854;2023-10-09T13:12:32;101512.19;;;23.19;62.92
70229;BME280;57617;51.988;5.854;2023-10-09T13:14:57;101509.41;;;23.19;62.97
70229;BME280;57617;51.988;5.854;2023-10-09T13:17:22;101510.22;;;23.19;63.08
70229;BME280;57617;51.988;5.854;2023-10-09T13:19:51;101520.50;;;23.19;63.10
70229;BME280;57617;51.988;5.854;2023-10-09T13:22:17;101518.00;;;23.17;62.89
70229;BME280;57617;51.988;5.854;2023-10-09T13:24:42;101521.06;;;23.16;63.05
70229;BME280;57617;51.988;5.854;2023-10-09T13:27:08;101519.25;;;23.11;63.05
70229;BME280;57617;51.988;5.854;2023-10-09T13:29:35;101517.91;;;23.09;62.98
70229;BME280;57617;51.988;5.854;2023-10-09T13:32:00;101517.38;;;23.07;63.32